Time;durP1;ratioP1;P1;durP2;ratioP2;P2;SDS_P1;SDS_P2;PMS_P1;PMS_P2;Temp;Humidity;BMP_temperature;BMP_pressure;BME280_temperature;BME280_humidity;BME280_pressure;Samples;Min_cycle;Max_cycle;Signal;HPM_P1;HPM_P2
2021/10/03 00:01:03;;;;;;;11.20;4.60;;;;;;;;;;4973908;28;20038;-72
2021/10/03 00:03:30;;;;;;;7.82;4.40;;;;;;;;;;4977392;28;20085;-74
2021/10/03 00:05:56;;;;;;;6.43;4.40;;;;;;;;;;4975754;28;20033;-71
2021/10/03 00:08:24;;;;;;;9.63;4.82;;;;;;;;;;4974897;28;20018;-75
2021/10/03 00:10:50;;;;;;;9.25;4.28;;;;;;;;;;4973056;28;20033;-74
2021/10/03 00:13:19;;;;;;;9.45;4.60;;;;;;;;;;4974939;28;20127;-75
2021/10/03 00:15:46;;;;;;;12.80;4.90;;;;;;;;;;4960101;28;20081;-72
2021/10/03 00:18:12;;;;;;;8.57;4.70;;;;;;;;;;4972950;28;20041;-75
2021/10/03 00:20:38;;;;;;;9.25;4.35;;;;;;;;;;4973035;28;20030;-74
2021/10/03 00:23:04;;;;;;;10.32;4.20;;;;;;;;;;4972521;28;20173;-74
2021/10/03 00:25:31;;;;;;;8.18;4.22;;;;;;;;;;4973606;28;20023;-75
2021/10/03 00:27:57;;;;;;;7.63;4.45;;;;;;;;;;4975858;28;20042;-75
2021/10/03 00:30:26;;;;;;;10.32;4.85;;;;;;;;;;4973519;28;20018;-74
2021/10/03 00:32:54;;;;;;;10.20;4.15;;;;;;;;;;4973575;28;20038;-70
2021/10/03 00:35:20;;;;;;;11.90;4.40;;;;;;;;;;4976003;28;20023;-75
2021/10/03 00:37:46;;;;;;;7.03;4.38;;;;;;;;;;4977170;28;20058;-74
2021/10/03 00:40:13;;;;;;;5.78;4.22;;;;;;;;;;4976896;28;20039;-74
2021/10/03 00:42:40;;;;;;;7.78;4.40;;;;;;;;;;4976256;28;20075;-74
2021/10/03 00:45:08;;;;;;;10.73;4.13;;;;;;;;;;4976791;28;20182;-74
2021/10/03 00:47:34;;;;;;;6.55;3.90;;;;;;;;;;4976590;28;20050;-74
2021/10/03 00:50:00;;;;;;;7.38;4.22;;;;;;;;;;4976083;28;20696;-74
2021/10/03 00:52:26;;;;;;;8.15;4.57;;;;;;;;;;4976469;28;20045;-75
2021/10/03 00:54:53;;;;;;;8.38;4.07;;;;;;;;;;4976304;28;20057;-75
2021/10/03 00:57:19;;;;;;;7.82;4.60;;;;;;;;;;4976253;28;20488;-75
2021/10/03 00:59:45;;;;;;;9.65;4.55;;;;;;;;;;4975888;28;20026;-75
2021/10/03 01:02:11;;;;;;;7.65;4.18;;;;;;;;;;4976543;28;20046;-74
2021/10/03 01:04:37;;;;;;;6.82;4.10;;;;;;;;;;4976282;28;20023;-75
2021/10/03 01:07:03;;;;;;;7.85;4.38;;;;;;;;;;4975886;28;20126;-75
2021/10/03 01:09:30;;;;;;;13.13;4.80;;;;;;;;;;4975247;28;20030;-73
2021/10/03 01:11:56;;;;;;;12.80;4.78;;;;;;;;;;4976341;28;20070;-74
2021/10/03 01:14:22;;;;;;;6.60;4.50;;;;;;;;;;4976935;28;20027;-74
2021/10/03 01:16:49;;;;;;;6.90;4.50;;;;;;;;;;4976678;28;20408;-75
2021/10/03 01:19:16;;;;;;;7.50;4.15;;;;;;;;;;4975913;28;20121;-72
2021/10/03 01:21:42;;;;;;;7.32;4.40;;;;;;;;;;4975621;28;20031;-74
2021/10/03 01:24:09;;;;;;;6.85;4.13;;;;;;;;;;4976610;28;20038;-75
2021/10/03 01:26:35;;;;;;;11.02;4.47;;;;;;;;;;4976386;28;20388;-74
2021/10/03 01:29:01;;;;;;;9.73;4.40;;;;;;;;;;4972449;28;20026;-74
2021/10/03 01:31:28;;;;;;;9.90;4.60;;;;;;;;;;4973391;28;20093;-75
2021/10/03 01:33:54;;;;;;;8.10;4.68;;;;;;;;;;4975694;28;20053;-74
2021/10/03 01:36:21;;;;;;;9.45;4.55;;;;;;;;;;4976048;28;20078;-74
2021/10/03 01:38:48;;;;;;;9.18;4.60;;;;;;;;;;4973944;28;20042;-74
2021/10/03 01:41:14;;;;;;;8.80;4.88;;;;;;;;;;4975626;28;20046;-74
2021/10/03 01:43:40;;;;;;;6.72;4.45;;;;;;;;;;4975584;28;20453;-75
2021/10/03 01:46:06;;;;;;;13.85;6.97;;;;;;;;;;4976121;28;20031;-74
2021/10/03 01:48:33;;;;;;;20.30;9.02;;;;;;;;;;4973895;28;20048;-73
2021/10/03 01:51:04;;;;;;;8.25;5.40;;;;;;;;;;4975840;28;20022;-73
2021/10/03 01:53:41;;;;;;;11.77;5.38;;;;;;;;;;4975260;28;20080;-73
2021/10/03 01:56:12;;;;;;;8.60;4.72;;;;;;;;;;4976005;28;20050;-74
2021/10/03 01:58:49;;;;;;;8.95;5.43;;;;;;;;;;4975318;28;20023;-75
2021/10/03 02:01:18;;;;;;;11.13;5.78;;;;;;;;;;4975546;28;20023;-75
2021/10/03 02:03:44;;;;;;;7.50;4.72;;;;;;;;;;4975885;28;20473;-75
2021/10/03 02:06:10;;;;;;;10.88;4.80;;;;;;;;;;4975307;28;20058;-73
2021/10/03 02:08:36;;;;;;;9.20;4.95;;;;;;;;;;4974692;28;20023;-74
2021/10/03 02:11:02;;;;;;;7.47;4.47;;;;;;;;;;4975489;28;20209;-73
2021/10/03 02:13:31;;;;;;;9.85;4.30;;;;;;;;;;4977304;28;20058;-74
2021/10/03 02:16:01;;;;;;;9.32;4.80;;;;;;;;;;4975582;28;20393;-72
2021/10/03 02:18:32;;;;;;;8.30;4.35;;;;;;;;;;4974871;28;20053;-74
2021/10/03 02:20:58;;;;;;;6.28;4.00;;;;;;;;;;4975293;28;20023;-74
2021/10/03 02:23:26;;;;;;;7.95;4.35;;;;;;;;;;4974349;28;20125;-74
2021/10/03 02:25:52;;;;;;;8.68;4.50;;;;;;;;;;4974775;28;20041;-74
2021/10/03 02:28:20;;;;;;;8.77;4.70;;;;;;;;;;4974631;28;20106;-73
2021/10/03 02:30:47;;;;;;;8.68;4.75;;;;;;;;;;4974816;28;20030;-74
2021/10/03 02:33:13;;;;;;;11.10;5.03;;;;;;;;;;4974784;28;20429;-73
2021/10/03 02:35:39;;;;;;;6.40;4.78;;;;;;;;;;4975667;28;20022;-74
2021/10/03 02:38:07;;;;;;;8.50;4.88;;;;;;;;;;4974469;28;20026;-74
2021/10/03 02:40:33;;;;;;;7.15;4.22;;;;;;;;;;4974654;28;20408;-72
2021/10/03 02:43:05;;;;;;;9.02;4.50;;;;;;;;;;4974313;28;20142;-74
2021/10/03 02:45:31;;;;;;;6.65;4.40;;;;;;;;;;4971134;28;20476;-74
2021/10/03 02:47:57;;;;;;;8.50;4.60;;;;;;;;;;4974849;28;20058;-74
2021/10/03 02:50:23;;;;;;;8.73;4.28;;;;;;;;;;4976163;28;20470;-74
2021/10/03 02:52:49;;;;;;;8.40;4.25;;;;;;;;;;4969033;28;20089;-74
2021/10/03 02:55:17;;;;;;;9.73;4.97;;;;;;;;;;4973884;28;20023;-74
2021/10/03 02:57:43;;;;;;;8.10;4.35;;;;;;;;;;4974677;28;20144;-74
2021/10/03 03:00:09;;;;;;;8.50;4.45;;;;;;;;;;4974819;28;20093;-74
2021/10/03 03:02:37;;;;;;;11.48;5.50;;;;;;;;;;4973984;28;20039;-74
2021/10/03 03:05:05;;;;;;;9.32;4.65;;;;;;;;;;4974834;28;20041;-73
2021/10/03 03:07:32;;;;;;;7.20;4.47;;;;;;;;;;4966071;28;20039;-74
2021/10/03 03:09:58;;;;;;;10.18;4.55;;;;;;;;;;4974399;28;20089;-73
2021/10/03 03:12:24;;;;;;;8.27;4.50;;;;;;;;;;4973424;28;20019;-74
2021/10/03 03:14:50;;;;;;;9.80;4.53;;;;;;;;;;4973356;28;20090;-74
2021/10/03 03:17:17;;;;;;;8.63;4.60;;;;;;;;;;4974782;28;20046;-74
2021/10/03 03:19:43;;;;;;;9.43;4.60;;;;;;;;;;4972000;28;20027;-74
2021/10/03 03:22:10;;;;;;;10.60;4.32;;;;;;;;;;4973709;28;20184;-74
2021/10/03 03:24:36;;;;;;;9.30;4.55;;;;;;;;;;4975163;28;20026;-74
2021/10/03 03:27:02;;;;;;;9.63;4.60;;;;;;;;;;4974660;28;20022;-73
2021/10/03 03:29:28;;;;;;;8.15;4.15;;;;;;;;;;4974180;28;20027;-70
2021/10/03 03:31:55;;;;;;;10.43;4.38;;;;;;;;;;4973623;28;20034;-74
2021/10/03 03:34:22;;;;;;;9.82;4.22;;;;;;;;;;4973455;28;20033;-73
2021/10/03 03:36:48;;;;;;;9.57;4.18;;;;;;;;;;4972882;28;20033;-72
2021/10/03 03:39:14;;;;;;;10.85;4.65;;;;;;;;;;4973722;28;20481;-72
2021/10/03 03:41:40;;;;;;;10.05;4.70;;;;;;;;;;4973997;28;20057;-74
2021/10/03 03:44:06;;;;;;;8.85;4.57;;;;;;;;;;4972630;28;20109;-74
2021/10/03 03:46:35;;;;;;;9.15;5.13;;;;;;;;;;4973693;28;20113;-73
2021/10/03 03:49:01;;;;;;;8.40;4.15;;;;;;;;;;4973320;28;20163;-73
2021/10/03 03:51:27;;;;;;;10.13;4.72;;;;;;;;;;4972950;28;20496;-71
2021/10/03 03:53:53;;;;;;;8.90;4.93;;;;;;;;;;4973802;28;20030;-74
2021/10/03 03:56:19;;;;;;;6.45;4.63;;;;;;;;;;4973525;28;20023;-73
2021/10/03 03:58:45;;;;;;;7.15;4.53;;;;;;;;;;4973053;28;20110;-73
2021/10/03 04:01:11;;;;;;;7.18;4.43;;;;;;;;;;4973134;28;20495;-72
2021/10/03 04:03:37;;;;;;;8.77;5.30;;;;;;;;;;4975133;28;20038;-69
2021/10/03 04:06:04;;;;;;;13.48;5.63;;;;;;;;;;4968604;28;20032;-72
2021/10/03 04:08:32;;;;;;;9.63;5.00;;;;;;;;;;4975353;28;20038;-68
2021/10/03 04:10:58;;;;;;;8.70;4.80;;;;;;;;;;4975619;28;20072;-74
2021/10/03 04:13:24;;;;;;;7.28;4.82;;;;;;;;;;4977313;28;20023;-74
2021/10/03 04:15:52;;;;;;;7.32;4.45;;;;;;;;;;4978600;28;20093;-73
2021/10/03 04:18:18;;;;;;;7.45;4.97;;;;;;;;;;4979676;28;20035;-73
2021/10/03 04:20:44;;;;;;;8.93;5.63;;;;;;;;;;4974486;28;20031;-73
2021/10/03 04:23:10;;;;;;;8.00;4.97;;;;;;;;;;4977434;28;20043;-73
2021/10/03 04:25:36;;;;;;;11.50;6.22;;;;;;;;;;4977025;28;20102;-72
2021/10/03 04:28:02;;;;;;;15.60;8.10;;;;;;;;;;4977095;28;20130;-74
2021/10/03 04:30:28;;;;;;;10.00;5.70;;;;;;;;;;4977561;28;20033;-73
2021/10/03 04:32:54;;;;;;;9.75;4.72;;;;;;;;;;4977035;28;20065;-72
2021/10/03 04:35:20;;;;;;;9.43;4.93;;;;;;;;;;4975030;28;20102;-73
2021/10/03 04:37:46;;;;;;;11.07;5.80;;;;;;;;;;4977501;28;20030;-73
2021/10/03 04:40:12;;;;;;;9.27;5.82;;;;;;;;;;4976577;28;20037;-71
2021/10/03 04:42:39;;;;;;;11.02;6.82;;;;;;;;;;4976705;28;20097;-73
2021/10/03 04:45:06;;;;;;;15.93;9.05;;;;;;;;;;4977455;28;20030;-73
2021/10/03 04:47:32;;;;;;;16.42;9.90;;;;;;;;;;4975296;28;20037;-68
2021/10/03 04:49:59;;;;;;;21.98;12.57;;;;;;;;;;4977257;28;20034;-73
2021/10/03 04:52:25;;;;;;;16.58;8.57;;;;;;;;;;4976393;28;20200;-68
2021/10/03 04:54:52;;;;;;;11.40;5.60;;;;;;;;;;4976399;28;20033;-73
2021/10/03 04:57:19;;;;;;;8.25;4.82;;;;;;;;;;4976600;28;20039;-73
2021/10/03 04:59:45;;;;;;;11.05;5.45;;;;;;;;;;4977126;28;20534;-73
2021/10/03 05:02:13;;;;;;;13.23;6.50;;;;;;;;;;4977321;28;20122;-72
2021/10/03 05:04:39;;;;;;;9.80;5.50;;;;;;;;;;4976461;28;20031;-74
2021/10/03 05:07:05;;;;;;;7.95;5.03;;;;;;;;;;4976677;28;20046;-73
2021/10/03 05:09:33;;;;;;;9.45;5.45;;;;;;;;;;4976476;28;20045;-73
2021/10/03 05:11:59;;;;;;;9.85;5.15;;;;;;;;;;4976026;28;20037;-73
2021/10/03 05:14:25;;;;;;;10.07;5.03;;;;;;;;;;4975992;28;20089;-73
2021/10/03 05:16:51;;;;;;;9.95;5.00;;;;;;;;;;4968750;28;20050;-74
2021/10/03 05:19:17;;;;;;;7.95;5.00;;;;;;;;;;4974458;28;20466;-74
2021/10/03 05:21:43;;;;;;;10.63;4.88;;;;;;;;;;4976557;28;20035;-71
2021/10/03 05:24:09;;;;;;;8.82;4.63;;;;;;;;;;4975749;28;20023;-72
2021/10/03 05:26:36;;;;;;;10.82;4.80;;;;;;;;;;4975650;28;20544;-68
2021/10/03 05:29:02;;;;;;;9.80;5.15;;;;;;;;;;4975916;28;20101;-73
2021/10/03 05:31:28;;;;;;;10.85;5.47;;;;;;;;;;4975568;28;20053;-70
2021/10/03 05:33:55;;;;;;;14.52;5.32;;;;;;;;;;4975525;28;20030;-71
2021/10/03 05:36:22;;;;;;;9.27;5.07;;;;;;;;;;4975942;28;20057;-71
2021/10/03 05:38:48;;;;;;;12.75;6.68;;;;;;;;;;4975870;28;20031;-72
2021/10/03 05:41:14;;;;;;;14.68;9.02;;;;;;;;;;4975211;28;20046;-71
2021/10/03 05:43:40;;;;;;;13.35;7.35;;;;;;;;;;4976150;28;20035;-72
2021/10/03 05:46:06;;;;;;;15.95;6.93;;;;;;;;;;4976813;28;20034;-73
2021/10/03 05:48:33;;;;;;;11.80;6.38;;;;;;;;;;4976520;28;20034;-73
2021/10/03 05:50:59;;;;;;;14.40;6.10;;;;;;;;;;4976263;28;20396;-73
2021/10/03 05:53:26;;;;;;;11.30;5.78;;;;;;;;;;4975696;28;20023;-73
2021/10/03 05:55:52;;;;;;;11.98;6.82;;;;;;;;;;4975484;28;20019;-73
2021/10/03 05:58:18;;;;;;;13.88;5.88;;;;;;;;;;4972460;28;20392;-68
2021/10/03 06:00:44;;;;;;;12.18;6.35;;;;;;;;;;4974494;28;20031;-72
2021/10/03 06:03:14;;;;;;;14.20;5.80;;;;;;;;;;4962794;28;20078;-68
2021/10/03 06:05:40;;;;;;;16.83;6.95;;;;;;;;;;4972195;28;20035;-69
2021/10/03 06:08:07;;;;;;;11.82;5.65;;;;;;;;;;4974646;28;20034;-70
2021/10/03 06:10:36;;;;;;;9.50;4.72;;;;;;;;;;4976221;28;20034;-72
2021/10/03 06:13:04;;;;;;;17.70;6.72;;;;;;;;;;4974758;28;20027;-70
2021/10/03 06:15:30;;;;;;;18.38;6.50;;;;;;;;;;4974919;28;20022;-69
2021/10/03 06:17:56;;;;;;;12.48;5.13;;;;;;;;;;4974376;28;20027;-68
2021/10/03 06:20:23;;;;;;;11.95;5.20;;;;;;;;;;4974577;28;20058;-70
2021/10/03 06:22:51;;;;;;;7.78;4.95;;;;;;;;;;4973905;28;20042;-68
2021/10/03 06:25:17;;;;;;;15.23;6.95;;;;;;;;;;4977815;28;20566;-71
2021/10/03 06:27:45;;;;;;;16.02;6.63;;;;;;;;;;4974196;28;20397;-72
2021/10/03 06:30:34;;;;;;;16.23;6.68;;;;;;;;;;4974520;28;20019;-81
2021/10/03 06:33:01;;;;;;;11.70;5.75;;;;;;;;;;4974226;28;20049;-83
2021/10/03 06:35:28;;;;;;;13.13;5.47;;;;;;;;;;4956789;28;20023;-77
2021/10/03 06:37:54;;;;;;;10.00;5.20;;;;;;;;;;4957126;28;20675;-77
2021/10/03 06:40:35;;;;;;;11.55;4.30;;;;;;;;;;4973536;28;20023;-74
2021/10/03 06:43:01;;;;;;;16.77;4.85;;;;;;;;;;4973491;28;20133;-74
2021/10/03 06:45:27;;;;;;;11.02;5.20;;;;;;;;;;4974192;28;20046;-74
2021/10/03 06:47:53;;;;;;;10.93;4.15;;;;;;;;;;4974408;28;20118;-71
2021/10/03 06:50:20;;;;;;;8.45;4.20;;;;;;;;;;4973771;28;20128;-72
2021/10/03 06:52:46;;;;;;;9.13;4.57;;;;;;;;;;4974625;28;20029;-73
2021/10/03 06:55:12;;;;;;;15.82;5.25;;;;;;;;;;4974409;28;20031;-74
2021/10/03 06:57:38;;;;;;;6.85;4.47;;;;;;;;;;4973896;28;20026;-73
2021/10/03 07:00:06;;;;;;;7.50;4.63;;;;;;;;;;4973634;28;20027;-75
2021/10/03 07:02:32;;;;;;;10.75;4.43;;;;;;;;;;4974196;28;20042;-72
2021/10/03 07:04:58;;;;;;;7.03;4.22;;;;;;;;;;4973942;28;20026;-73
2021/10/03 07:07:24;;;;;;;11.57;4.30;;;;;;;;;;4974193;28;20023;-73
2021/10/03 07:09:50;;;;;;;6.72;4.40;;;;;;;;;;4974229;28;20027;-73
2021/10/03 07:12:17;;;;;;;10.57;4.72;;;;;;;;;;4973361;28;20034;-74
2021/10/03 07:14:43;;;;;;;9.25;4.20;;;;;;;;;;4973768;28;20030;-73
2021/10/03 07:17:10;;;;;;;9.35;5.53;;;;;;;;;;4973524;28;20111;-74
2021/10/03 07:19:36;;;;;;;9.90;4.75;;;;;;;;;;4972789;28;20042;-74
2021/10/03 07:22:03;;;;;;;9.30;4.85;;;;;;;;;;4973662;28;20173;-73
2021/10/03 07:24:29;;;;;;;10.27;4.82;;;;;;;;;;4966248;28;20033;-74
2021/10/03 07:26:55;;;;;;;9.32;4.43;;;;;;;;;;4973615;28;20459;-73
2021/10/03 07:29:21;;;;;;;8.80;4.47;;;;;;;;;;4973848;28;20094;-73
2021/10/03 07:31:48;;;;;;;14.18;4.95;;;;;;;;;;4973133;28;20163;-75
2021/10/03 07:34:14;;;;;;;10.60;4.60;;;;;;;;;;4972702;28;20508;-71
2021/10/03 07:36:40;;;;;;;11.00;4.53;;;;;;;;;;4966925;28;20027;-74
2021/10/03 07:39:07;;;;;;;16.58;6.28;;;;;;;;;;4973703;28;20019;-74
2021/10/03 07:41:35;;;;;;;13.77;4.50;;;;;;;;;;4972858;28;20524;-73
2021/10/03 07:44:03;;;;;;;9.65;4.40;;;;;;;;;;4973820;28;20074;-75
2021/10/03 07:46:29;;;;;;;13.27;5.20;;;;;;;;;;4973414;28;20152;-73
2021/10/03 07:48:56;;;;;;;10.00;4.68;;;;;;;;;;4973741;28;20027;-74
2021/10/03 07:51:24;;;;;;;10.48;4.72;;;;;;;;;;4972977;28;20424;-72
2021/10/03 07:53:50;;;;;;;16.20;8.98;;;;;;;;;;4967690;28;20076;-76
2021/10/03 07:56:16;;;;;;;13.65;6.18;;;;;;;;;;4973524;28;20026;-74
2021/10/03 07:58:43;;;;;;;13.30;6.07;;;;;;;;;;4973490;28;20065;-75
2021/10/03 08:01:09;;;;;;;12.75;5.07;;;;;;;;;;4973369;28;20037;-72
2021/10/03 08:03:37;;;;;;;19.90;5.47;;;;;;;;;;4972473;28;20066;-75
2021/10/03 08:06:03;;;;;;;10.50;4.88;;;;;;;;;;4973335;28;20023;-75
2021/10/03 08:08:29;;;;;;;8.45;4.80;;;;;;;;;;4973518;28;20037;-75
2021/10/03 08:10:55;;;;;;;10.82;4.78;;;;;;;;;;4970735;28;20527;-72
2021/10/03 08:13:21;;;;;;;9.75;5.20;;;;;;;;;;4972377;28;20034;-74
2021/10/03 08:15:47;;;;;;;11.45;5.32;;;;;;;;;;4973484;28;20023;-73
2021/10/03 08:18:13;;;;;;;9.57;4.85;;;;;;;;;;4973091;28;20094;-74
2021/10/03 08:20:41;;;;;;;10.60;5.35;;;;;;;;;;4972502;28;20035;-73
2021/10/03 08:23:07;;;;;;;10.75;5.40;;;;;;;;;;4972707;28;20066;-72
2021/10/03 08:25:36;;;;;;;9.38;5.15;;;;;;;;;;4973334;28;20026;-72
2021/10/03 08:28:02;;;;;;;20.80;6.40;;;;;;;;;;4975593;28;20500;-73
2021/10/03 08:30:28;;;;;;;9.35;4.95;;;;;;;;;;4971842;28;20033;-71
2021/10/03 08:32:54;;;;;;;11.25;5.50;;;;;;;;;;4971914;28;20489;-69
2021/10/03 08:35:21;;;;;;;9.80;4.97;;;;;;;;;;4973092;28;20030;-75
2021/10/03 08:37:47;;;;;;;7.75;4.45;;;;;;;;;;4973178;28;20019;-72
2021/10/03 08:40:13;;;;;;;11.38;5.68;;;;;;;;;;4976120;28;20027;-71
2021/10/03 08:42:40;;;;;;;9.20;4.80;;;;;;;;;;4972212;28;20069;-73
2021/10/03 08:45:06;;;;;;;11.35;5.40;;;;;;;;;;4972103;28;20494;-72
2021/10/03 08:47:33;;;;;;;12.10;5.70;;;;;;;;;;4974818;28;20096;-73
2021/10/03 08:50:03;;;;;;;14.85;5.55;;;;;;;;;;4974131;28;20023;-72
2021/10/03 08:52:29;;;;;;;10.80;5.22;;;;;;;;;;4970012;28;20412;-73
2021/10/03 08:54:55;;;;;;;13.50;5.10;;;;;;;;;;4975718;28;20041;-73
2021/10/03 08:57:21;;;;;;;11.50;5.55;;;;;;;;;;4975951;28;20030;-73
2021/10/03 09:00:05;;;;;;;10.77;5.20;;;;;;;;;;4976592;28;20081;-74
2021/10/03 09:02:51;;;;;;;10.57;4.90;;;;;;;;;;4973882;28;20046;-72
2021/10/03 09:05:17;;;;;;;9.50;5.00;;;;;;;;;;4974463;28;20037;-73
2021/10/03 09:07:57;;;;;;;8.73;5.20;;;;;;;;;;4976307;28;20166;-75
2021/10/03 09:10:23;;;;;;;10.38;5.20;;;;;;;;;;4970723;28;20026;-72
2021/10/03 09:12:51;;;;;;;11.30;5.57;;;;;;;;;;4976048;28;20034;-74
2021/10/03 09:15:19;;;;;;;11.40;5.00;;;;;;;;;;4975879;28;20026;-72
2021/10/03 09:17:51;;;;;;;8.38;4.47;;;;;;;;;;4976425;28;20058;-73
2021/10/03 09:20:19;;;;;;;10.48;5.47;;;;;;;;;;4976182;28;20023;-73
2021/10/03 09:22:56;;;;;;;10.95;5.28;;;;;;;;;;4957729;28;20137;-72
2021/10/03 09:25:39;;;;;;;9.02;4.90;;;;;;;;;;4974033;28;20844;-73
2021/10/03 09:28:07;;;;;;;10.10;5.00;;;;;;;;;;4975026;28;20109;-72
2021/10/03 09:30:34;;;;;;;10.00;4.65;;;;;;;;;;4975712;28;20047;-72
2021/10/03 09:33:01;;;;;;;9.95;5.30;;;;;;;;;;4975617;28;20496;-70
2021/10/03 09:35:32;;;;;;;8.32;4.60;;;;;;;;;;4974306;28;20121;-70
2021/10/03 09:37:58;;;;;;;7.10;4.75;;;;;;;;;;4973156;28;20029;-72
2021/10/03 09:40:24;;;;;;;9.95;5.20;;;;;;;;;;4975455;28;20061;-72
2021/10/03 09:42:57;;;;;;;10.75;4.80;;;;;;;;;;4975127;28;20055;-72
2021/10/03 09:45:23;;;;;;;8.90;4.90;;;;;;;;;;4975538;28;20034;-72
2021/10/03 09:48:00;;;;;;;9.30;4.90;;;;;;;;;;4983076;28;20022;-72
2021/10/03 09:50:27;;;;;;;8.63;4.90;;;;;;;;;;4975234;28;20111;-72
2021/10/03 09:52:55;;;;;;;9.60;4.60;;;;;;;;;;4975355;28;20459;-72
2021/10/03 09:55:25;;;;;;;10.65;4.40;;;;;;;;;;4976222;28;20030;-72
2021/10/03 09:57:52;;;;;;;17.05;5.07;;;;;;;;;;4974808;28;20385;-73
2021/10/03 10:00:18;;;;;;;9.63;5.10;;;;;;;;;;4975404;28;20026;-69
2021/10/03 10:02:45;;;;;;;10.75;5.00;;;;;;;;;;4975270;28;20033;-71
2021/10/03 10:05:12;;;;;;;9.75;5.50;;;;;;;;;;4974670;28;20030;-71
2021/10/03 10:07:38;;;;;;;12.50;5.72;;;;;;;;;;4975266;28;20468;-73
2021/10/03 10:10:05;;;;;;;9.07;5.40;;;;;;;;;;4975368;28;20022;-70
2021/10/03 10:12:34;;;;;;;9.70;5.43;;;;;;;;;;4974762;28;20038;-74
2021/10/03 10:15:01;;;;;;;11.48;5.45;;;;;;;;;;4975035;28;20031;-75
2021/10/03 10:17:38;;;;;;;9.73;6.05;;;;;;;;;;4975986;28;20027;-74
2021/10/03 10:20:29;;;;;;;9.63;5.00;;;;;;;;;;4980116;28;20388;-72
2021/10/03 10:22:59;;;;;;;11.35;4.90;;;;;;;;;;4973284;28;20046;-72
2021/10/03 10:25:40;;;;;;;11.88;5.18;;;;;;;;;;4976380;28;20033;-75
2021/10/03 10:28:08;;;;;;;9.05;5.43;;;;;;;;;;4973208;28;20039;-72
2021/10/03 10:30:36;;;;;;;9.73;5.13;;;;;;;;;;4973605;28;20041;-75
2021/10/03 10:33:14;;;;;;;12.10;5.00;;;;;;;;;;4975256;28;20033;-70
2021/10/03 10:35:44;;;;;;;7.95;5.25;;;;;;;;;;4967554;28;20025;-75
2021/10/03 10:38:11;;;;;;;14.13;5.60;;;;;;;;;;4973455;28;20454;-69
2021/10/03 10:40:39;;;;;;;9.40;5.13;;;;;;;;;;4975737;28;20027;-69
2021/10/03 10:43:10;;;;;;;20.08;6.05;;;;;;;;;;4972947;28;20080;-72
2021/10/03 10:45:39;;;;;;;11.02;5.50;;;;;;;;;;4971785;28;20031;-73
2021/10/03 10:48:11;;;;;;;11.55;5.40;;;;;;;;;;4973447;28;20037;-75
2021/10/03 10:50:37;;;;;;;12.10;5.25;;;;;;;;;;4975626;28;20035;-73
2021/10/03 10:53:22;;;;;;;15.50;6.50;;;;;;;;;;4974139;28;20026;-78
2021/10/03 10:56:00;;;;;;;13.07;5.60;;;;;;;;;;4973257;28;20094;-76
2021/10/03 10:58:27;;;;;;;10.93;5.70;;;;;;;;;;4972613;28;20037;-77
2021/10/03 11:00:58;;;;;;;13.80;6.15;;;;;;;;;;4973993;28;20030;-76
2021/10/03 11:03:43;;;;;;;12.70;5.93;;;;;;;;;;4957116;28;20028;-77
2021/10/03 11:06:12;;;;;;;11.30;6.15;;;;;;;;;;4973579;28;20034;-75
2021/10/03 11:08:59;;;;;;;12.75;6.82;;;;;;;;;;4973232;28;20026;-69
2021/10/03 11:11:29;;;;;;;8.00;5.55;;;;;;;;;;4968100;28;20027;-76
2021/10/03 11:13:59;;;;;;;10.02;5.72;;;;;;;;;;4971612;28;20031;-73
2021/10/03 11:16:34;;;;;;;8.77;5.53;;;;;;;;;;4972296;28;20511;-71
2021/10/03 11:19:00;;;;;;;11.60;5.40;;;;;;;;;;4973378;28;20097;-72
2021/10/03 11:21:27;;;;;;;8.15;5.22;;;;;;;;;;4974730;28;20118;-73
2021/10/03 11:23:54;;;;;;;9.45;5.90;;;;;;;;;;4973774;28;20443;-80
2021/10/03 11:26:23;;;;;;;9.63;5.38;;;;;;;;;;4972333;28;20030;-70
2021/10/03 11:28:53;;;;;;;10.05;5.80;;;;;;;;;;4973725;28;20041;-76
2021/10/03 11:31:38;;;;;;;14.40;6.78;;;;;;;;;;4952937;28;20042;-79
2021/10/03 11:34:05;;;;;;;8.80;5.05;;;;;;;;;;4973476;28;20029;-70
2021/10/03 11:36:32;;;;;;;9.32;6.30;;;;;;;;;;4973002;28;20491;-76
2021/10/03 11:39:00;;;;;;;19.80;6.32;;;;;;;;;;4973196;28;20389;-80
2021/10/03 11:41:31;;;;;;;10.27;6.03;;;;;;;;;;4972152;28;20059;-72
2021/10/03 11:43:57;;;;;;;12.77;5.65;;;;;;;;;;4972499;28;20046;-80
2021/10/03 11:46:23;;;;;;;9.85;5.50;;;;;;;;;;4973098;28;20023;-82
2021/10/03 11:48:53;;;;;;;11.27;5.45;;;;;;;;;;4972504;28;20059;-81
2021/10/03 11:51:20;;;;;;;8.38;5.63;;;;;;;;;;4971935;28;20388;-81
2021/10/03 11:53:49;;;;;;;12.13;5.32;;;;;;;;;;4972604;28;20022;-76
2021/10/03 11:56:17;;;;;;;10.00;5.70;;;;;;;;;;4978422;28;20114;-74
2021/10/03 11:58:44;;;;;;;10.10;5.78;;;;;;;;;;4972560;28;20471;-87
2021/10/03 12:01:10;;;;;;;10.27;5.50;;;;;;;;;;4972404;28;20065;-71
2021/10/03 12:03:50;;;;;;;11.98;5.65;;;;;;;;;;4972238;28;20043;-81
2021/10/03 12:06:26;;;;;;;9.25;5.78;;;;;;;;;;4973125;28;20473;-76
2021/10/03 12:08:52;;;;;;;12.27;5.97;;;;;;;;;;4971861;28;20033;-71
2021/10/03 12:11:18;;;;;;;10.25;5.45;;;;;;;;;;4971212;28;20035;-74
2021/10/03 12:14:01;;;;;;;16.38;5.88;;;;;;;;;;4971617;28;20109;-74
2021/10/03 12:16:27;;;;;;;9.63;5.63;;;;;;;;;;4972025;28;20018;-73
2021/10/03 12:19:01;;;;;;;13.60;7.60;;;;;;;;;;4971786;28;20023;-73
2021/10/03 12:21:31;;;;;;;14.50;8.57;;;;;;;;;;4973048;28;20042;-68
2021/10/03 12:24:03;;;;;;;11.00;5.90;;;;;;;;;;4971099;28;20039;-72
2021/10/03 12:26:35;;;;;;;9.18;6.60;;;;;;;;;;4969658;28;20022;-69
2021/10/03 12:29:07;;;;;;;11.00;5.65;;;;;;;;;;4973438;28;20030;-70
2021/10/03 12:31:33;;;;;;;9.75;5.43;;;;;;;;;;4970738;28;20034;-73
2021/10/03 12:33:59;;;;;;;10.65;6.50;;;;;;;;;;4975657;28;20031;-72
2021/10/03 12:36:32;;;;;;;12.70;6.10;;;;;;;;;;4975314;28;20027;-88
2021/10/03 12:38:58;;;;;;;12.47;7.10;;;;;;;;;;4955447;28;20054;-79
2021/10/03 12:41:24;;;;;;;12.10;6.50;;;;;;;;;;4974958;28;20051;-70
2021/10/03 12:43:56;;;;;;;9.68;5.97;;;;;;;;;;4973950;28;20097;-75
2021/10/03 12:46:26;;;;;;;13.37;6.20;;;;;;;;;;4973293;28;20403;-77
2021/10/03 12:48:52;;;;;;;10.55;5.72;;;;;;;;;;4974058;28;20179;-82
2021/10/03 12:51:18;;;;;;;10.73;6.28;;;;;;;;;;4974898;28;20035;-73
2021/10/03 12:53:45;;;;;;;12.98;6.75;;;;;;;;;;4973057;28;20483;-69
2021/10/03 12:56:11;;;;;;;11.35;5.88;;;;;;;;;;4974657;28;20097;-70
2021/10/03 12:58:37;;;;;;;8.27;5.88;;;;;;;;;;4975925;28;20470;-70
2021/10/03 13:01:03;;;;;;;9.77;6.40;;;;;;;;;;4975390;28;20030;-75
2021/10/03 13:03:34;;;;;;;13.95;6.70;;;;;;;;;;4974748;28;20041;-70
2021/10/03 13:06:00;;;;;;;16.65;7.22;;;;;;;;;;4972146;28;20023;-71
2021/10/03 13:08:27;;;;;;;11.93;6.90;;;;;;;;;;4973362;28;20027;-71
2021/10/03 13:10:53;;;;;;;9.10;6.13;;;;;;;;;;4975738;28;20056;-74
2021/10/03 13:13:19;;;;;;;14.32;6.25;;;;;;;;;;4974911;28;20130;-74
2021/10/03 13:15:45;;;;;;;12.10;6.88;;;;;;;;;;4975467;28;20031;-75
2021/10/03 13:18:11;;;;;;;11.63;6.50;;;;;;;;;;4975427;28;20033;-73
2021/10/03 13:20:41;;;;;;;14.05;7.43;;;;;;;;;;4975625;28;20026;-76
2021/10/03 13:23:07;;;;;;;17.50;7.00;;;;;;;;;;4975209;28;20041;-76
2021/10/03 13:25:33;;;;;;;11.25;6.75;;;;;;;;;;4975399;28;20023;-74
2021/10/03 13:27:59;;;;;;;13.00;6.55;;;;;;;;;;4975534;28;20033;-72
2021/10/03 13:30:25;;;;;;;12.48;7.05;;;;;;;;;;4975322;28;20026;-77
2021/10/03 13:32:51;;;;;;;10.57;6.50;;;;;;;;;;4975447;28;20495;-76
2021/10/03 13:35:20;;;;;;;15.00;6.82;;;;;;;;;;4974938;28;20035;-75
2021/10/03 13:37:46;;;;;;;10.30;6.28;;;;;;;;;;4975624;28;20036;-75
2021/10/03 13:40:12;;;;;;;10.18;6.47;;;;;;;;;;4974929;28;20400;-77
2021/10/03 13:42:38;;;;;;;11.88;6.90;;;;;;;;;;4974641;28;20102;-74
2021/10/03 13:45:05;;;;;;;13.30;6.38;;;;;;;;;;4974926;28;20027;-76
2021/10/03 13:47:31;;;;;;;11.02;6.43;;;;;;;;;;4973506;28;20019;-73
2021/10/03 13:49:57;;;;;;;11.05;6.55;;;;;;;;;;4974765;28;20480;-79
2021/10/03 13:52:24;;;;;;;8.05;6.00;;;;;;;;;;4975572;28;20022;-77
2021/10/03 13:54:53;;;;;;;8.90;6.53;;;;;;;;;;4975063;28;20026;-76
2021/10/03 13:57:19;;;;;;;16.27;6.63;;;;;;;;;;4973732;28;20384;-77
2021/10/03 13:59:45;;;;;;;11.52;6.35;;;;;;;;;;4974184;28;20380;-79
2021/10/03 14:02:16;;;;;;;12.85;6.82;;;;;;;;;;4974903;28;20500;-76
2021/10/03 14:04:42;;;;;;;10.73;6.72;;;;;;;;;;4973484;28;20126;-76
2021/10/03 14:07:08;;;;;;;13.90;6.20;;;;;;;;;;4974158;28;20030;-75
2021/10/03 14:09:34;;;;;;;17.73;6.18;;;;;;;;;;4975785;28;20085;-76
2021/10/03 14:12:00;;;;;;;10.65;6.57;;;;;;;;;;4974464;28;20026;-75
2021/10/03 14:14:26;;;;;;;11.55;6.38;;;;;;;;;;4974491;28;20034;-73
2021/10/03 14:16:52;;;;;;;11.02;6.43;;;;;;;;;;4975083;28;20406;-78
2021/10/03 14:19:18;;;;;;;15.40;6.80;;;;;;;;;;4973945;28;20093;-76
2021/10/03 14:21:44;;;;;;;12.90;6.20;;;;;;;;;;4974729;28;20072;-75
2021/10/03 14:24:10;;;;;;;11.45;6.55;;;;;;;;;;4974752;28;20027;-72
2021/10/03 14:26:37;;;;;;;16.17;6.93;;;;;;;;;;4974332;28;20382;-75
2021/10/03 14:29:03;;;;;;;10.63;6.18;;;;;;;;;;4974032;28;20027;-77
2021/10/03 14:31:29;;;;;;;11.15;6.38;;;;;;;;;;4974460;28;20027;-73
2021/10/03 14:33:56;;;;;;;12.63;6.68;;;;;;;;;;4973939;28;20030;-73
2021/10/03 14:36:22;;;;;;;14.57;7.00;;;;;;;;;;4972911;28;20034;-74
2021/10/03 14:38:49;;;;;;;17.02;6.50;;;;;;;;;;4973898;28;20511;-71